createdAt,value
2023-05-01T00:01:06.711Z,6.03
2023-05-01T00:03:33.860Z,6.03
2023-05-01T00:06:01.713Z,6.05
2023-05-01T00:08:28.406Z,6.04
2023-05-01T00:10:56.329Z,6.04
2023-05-01T00:13:23.075Z,6.03
2023-05-01T00:15:50.237Z,6.00
2023-05-01T00:18:16.859Z,5.98
2023-05-01T00:20:43.444Z,5.98
2023-05-01T00:23:10.028Z,5.97
2023-05-01T00:25:36.689Z,5.94
2023-05-01T00:28:04.761Z,5.94
2023-05-01T00:30:32.595Z,5.94
2023-05-01T00:32:59.232Z,5.93
2023-05-01T00:35:25.804Z,5.89
2023-05-01T00:37:52.378Z,5.87
2023-05-01T00:40:19.076Z,5.90
2023-05-01T00:42:45.798Z,5.90
2023-05-01T00:45:13.708Z,5.88
2023-05-01T00:47:40.416Z,5.88
2023-05-01T00:50:07.962Z,5.83
2023-05-01T00:52:34.663Z,5.85
2023-05-01T00:55:01.388Z,5.85
2023-05-01T00:57:27.995Z,5.82
2023-05-01T00:59:54.802Z,5.83
2023-05-01T01:02:23.300Z,5.81
2023-05-01T01:04:50.540Z,5.79
2023-05-01T01:07:23.422Z,5.75
2023-05-01T01:10:01.748Z,5.70
2023-05-01T01:12:34.231Z,5.66
2023-05-01T01:15:10.164Z,5.57
2023-05-01T01:17:44.546Z,5.48
2023-05-01T01:20:33.211Z,5.37
2023-05-01T01:23:14.157Z,5.28
2023-05-01T01:25:58.162Z,5.21
2023-05-01T01:28:39.536Z,5.11
2023-05-01T01:31:13.272Z,5.05
2023-05-01T01:34:03.951Z,5.00
2023-05-01T01:36:43.521Z,4.94
2023-05-01T01:39:15.948Z,4.89
2023-05-01T01:41:49.313Z,4.87
2023-05-01T01:44:18.920Z,4.82
2023-05-01T01:46:46.079Z,4.79
2023-05-01T01:49:20.855Z,4.75
2023-05-01T01:51:49.896Z,4.72
2023-05-01T01:54:21.871Z,4.68
2023-05-01T01:56:50.502Z,4.65
2023-05-01T01:59:18.728Z,4.64
2023-05-01T02:01:47.611Z,4.64
2023-05-01T02:04:18.150Z,4.64
2023-05-01T02:06:46.828Z,4.63
2023-05-01T02:09:18.919Z,4.61
2023-05-01T02:11:46.599Z,4.61
2023-05-01T02:14:14.387Z,4.61
2023-05-01T02:19:09.656Z,4.60
2023-05-01T02:21:39.490Z,4.58
2023-05-01T02:24:07.340Z,4.58
2023-05-01T02:26:40.209Z,4.55
2023-05-01T02:29:06.755Z,4.49
2023-05-01T02:31:34.037Z,4.44
2023-05-01T02:34:00.796Z,4.40
2023-05-01T02:36:27.389Z,4.34
2023-05-01T02:38:55.348Z,4.29
2023-05-01T02:41:22.476Z,4.22
2023-05-01T02:43:55.180Z,4.19
2023-05-01T02:46:24.190Z,4.16
2023-05-01T02:48:51.413Z,4.13
2023-05-01T02:51:19.746Z,4.06
2023-05-01T02:53:46.958Z,4.00
2023-05-01T02:56:14.877Z,3.94
2023-05-01T02:58:42.430Z,3.87
2023-05-01T03:01:09.230Z,3.80
2023-05-01T03:03:36.005Z,3.73
2023-05-01T03:06:02.610Z,3.69
2023-05-01T03:08:29.126Z,3.62
2023-05-01T03:10:55.701Z,3.57
2023-05-01T03:13:23.550Z,3.55
2023-05-01T03:15:50.240Z,3.49
2023-05-01T03:18:16.783Z,3.44
2023-05-01T03:20:51.684Z,3.40
2023-05-01T03:23:18.284Z,3.35
2023-05-01T03:25:45.004Z,3.34
2023-05-01T03:28:11.535Z,3.31
2023-05-01T03:30:39.604Z,3.27
2023-05-01T03:33:06.190Z,3.22
2023-05-01T03:35:32.925Z,3.18
2023-05-01T03:37:59.529Z,3.14
2023-05-01T03:40:26.114Z,3.09
2023-05-01T03:42:52.653Z,3.05
2023-05-01T03:45:19.233Z,3.02
2023-05-01T03:47:47.216Z,3.02
2023-05-01T03:50:13.937Z,3.00
2023-05-01T03:52:40.516Z,3.01
2023-05-01T03:55:08.229Z,3.00
2023-05-01T03:57:34.807Z,2.98
2023-05-01T04:00:01.325Z,2.97
2023-05-01T04:02:28.003Z,2.97
2023-05-01T04:04:56.061Z,3.00
2023-05-01T04:07:22.618Z,3.03
2023-05-01T04:09:49.223Z,3.02
2023-05-01T04:12:15.791Z,3.03
2023-05-01T04:14:42.473Z,3.06
2023-05-01T04:17:09.218Z,3.08
2023-05-01T04:19:35.730Z,3.11
2023-05-01T04:22:03.782Z,3.18
2023-05-01T04:24:30.318Z,3.23
2023-05-01T04:26:56.972Z,3.31
2023-05-01T04:29:23.577Z,3.37
2023-05-01T04:31:50.181Z,3.46
2023-05-01T04:34:16.753Z,3.54
2023-05-01T04:36:44.315Z,3.65
2023-05-01T04:39:12.393Z,3.76
2023-05-01T04:41:38.951Z,3.83
2023-05-01T04:44:05.515Z,3.94
2023-05-01T04:46:32.093Z,4.03
2023-05-01T04:48:58.710Z,4.09
2023-05-01T04:51:25.450Z,4.17
2023-05-01T04:53:51.940Z,4.23
2023-05-01T04:56:19.870Z,4.32
2023-05-01T04:58:46.467Z,4.41
2023-05-01T05:01:13.176Z,4.46
2023-05-01T05:03:40.217Z,4.56
2023-05-01T05:06:06.975Z,4.64
2023-05-01T05:08:33.658Z,4.68
2023-05-01T05:11:01.001Z,4.74
2023-05-01T05:13:28.957Z,4.80
2023-05-01T05:15:55.554Z,4.85
2023-05-01T05:18:22.143Z,4.92
2023-05-01T05:20:48.767Z,4.99
2023-05-01T05:23:15.374Z,5.07
2023-05-01T05:25:41.990Z,5.17
2023-05-01T05:28:08.789Z,5.26
2023-05-01T05:30:37.197Z,5.34
2023-05-01T05:33:04.072Z,5.46
2023-05-01T05:35:30.755Z,5.53
2023-05-01T05:37:57.351Z,5.62
2023-05-01T05:40:23.975Z,5.64
2023-05-01T05:42:50.701Z,5.74
2023-05-01T05:45:17.507Z,5.83
2023-05-01T05:47:45.451Z,5.95
2023-05-01T05:50:12.027Z,6.04
2023-05-01T05:52:38.703Z,6.16
2023-05-01T05:55:06.423Z,6.29
2023-05-01T05:57:33.016Z,6.39
2023-05-01T05:59:59.615Z,6.55
2023-05-01T06:02:26.335Z,6.74
2023-05-01T06:04:54.347Z,6.86
2023-05-01T06:07:21.756Z,6.94
2023-05-01T06:09:48.326Z,7.06
2023-05-01T06:12:15.043Z,7.24
2023-05-01T06:14:42.137Z,7.31
2023-05-01T06:17:08.872Z,7.41
2023-05-01T06:19:35.728Z,7.56
2023-05-01T06:22:04.147Z,7.74
2023-05-01T06:24:30.878Z,7.84
2023-05-01T06:26:57.467Z,7.96
2023-05-01T06:29:23.964Z,8.19
2023-05-01T06:31:50.646Z,8.40
2023-05-01T06:34:17.190Z,8.52
2023-05-01T06:36:43.754Z,8.64
2023-05-01T06:39:11.772Z,8.81
2023-05-01T06:41:38.348Z,9.00
2023-05-01T06:44:05.029Z,9.20
2023-05-01T06:46:31.721Z,9.37
2023-05-01T06:48:58.288Z,9.46
2023-05-01T06:51:25.043Z,9.58
2023-05-01T06:53:51.604Z,9.73
2023-05-01T06:56:19.485Z,9.89
2023-05-01T06:58:46.072Z,9.99
2023-05-01T07:01:12.858Z,10.28
2023-05-01T07:03:39.563Z,10.45
2023-05-01T07:06:06.447Z,10.67
2023-05-01T07:08:33.045Z,10.91
2023-05-01T07:10:59.583Z,11.08
2023-05-01T07:13:27.695Z,11.42
2023-05-01T07:15:54.685Z,11.39
2023-05-01T07:18:21.343Z,11.56
2023-05-01T07:20:47.900Z,11.68
2023-05-01T07:23:14.400Z,11.90
2023-05-01T07:25:41.011Z,11.87
2023-05-01T07:28:07.591Z,11.98
2023-05-01T07:30:35.906Z,12.29
2023-05-01T07:33:02.483Z,12.31
2023-05-01T07:35:29.063Z,12.42
2023-05-01T07:37:55.600Z,12.72
2023-05-01T07:40:22.184Z,12.70
2023-05-01T07:42:48.705Z,12.69
2023-05-01T07:45:15.305Z,13.03
2023-05-01T07:47:43.207Z,13.16
2023-05-01T07:50:10.708Z,13.32
2023-05-01T07:52:37.368Z,13.52
2023-05-01T07:55:04.514Z,13.41
2023-05-01T07:57:31.494Z,13.35
2023-05-01T07:59:58.361Z,13.19
2023-05-01T08:02:25.321Z,12.96
2023-05-01T08:04:53.446Z,12.95
2023-05-01T08:07:20.217Z,13.00
2023-05-01T08:09:46.802Z,12.89
2023-05-01T08:12:13.885Z,12.99
2023-05-01T08:14:40.634Z,12.75
2023-05-01T08:17:07.151Z,12.74
2023-05-01T08:19:34.675Z,13.03
2023-05-01T08:22:02.552Z,13.34
2023-05-01T08:24:29.499Z,13.27
2023-05-01T08:26:56.291Z,13.08
2023-05-01T08:29:22.828Z,12.99
2023-05-01T08:31:49.457Z,12.71
2023-05-01T08:34:16.022Z,13.05
2023-05-01T08:36:42.760Z,13.01
2023-05-01T08:39:10.854Z,13.41
2023-05-01T08:41:38.100Z,13.64
2023-05-01T08:44:05.119Z,13.72
2023-05-01T08:46:44.720Z,13.72
2023-05-01T08:49:14.811Z,13.74
2023-05-01T08:51:42.364Z,14.15
2023-05-01T08:54:11.456Z,14.07
2023-05-01T08:56:38.823Z,14.74
2023-05-01T08:59:05.438Z,14.90
2023-05-01T09:01:33.468Z,14.88
2023-05-01T09:04:03.039Z,14.66
2023-05-01T09:06:29.898Z,14.19
2023-05-01T09:08:56.429Z,13.97
2023-05-01T09:11:24.749Z,14.15
2023-05-01T09:13:52.241Z,14.47
2023-05-01T09:16:19.341Z,14.52
2023-05-01T09:18:46.515Z,14.93
2023-05-01T09:21:13.388Z,15.19
2023-05-01T09:23:40.342Z,15.59
2023-05-01T09:26:07.579Z,16.16
2023-05-01T09:28:42.572Z,16.41
2023-05-01T09:31:22.964Z,16.51
2023-05-01T09:33:53.954Z,17.00
2023-05-01T09:36:20.638Z,17.12
2023-05-01T09:38:47.205Z,17.52
2023-05-01T09:41:14.523Z,17.47
2023-05-01T09:43:49.445Z,17.56
2023-05-01T09:46:16.224Z,17.81
2023-05-01T09:48:52.465Z,18.02
2023-05-01T09:51:26.898Z,18.24
2023-05-01T09:53:55.472Z,17.88
2023-05-01T09:56:22.135Z,17.77
2023-05-01T09:58:50.699Z,17.65
2023-05-01T10:01:17.352Z,17.26
2023-05-01T10:03:44.791Z,17.44
2023-05-01T10:06:11.544Z,17.52
2023-05-01T10:08:45.249Z,17.70
2023-05-01T10:11:11.993Z,17.68
2023-05-01T10:13:38.512Z,17.55
2023-05-01T10:16:07.496Z,18.03
2023-05-01T10:18:34.920Z,18.04
2023-05-01T10:21:01.756Z,17.84
2023-05-01T10:23:29.296Z,18.24
2023-05-01T10:25:56.406Z,18.25
2023-05-01T10:28:23.110Z,18.23
2023-05-01T10:30:49.823Z,18.47
2023-05-01T10:33:18.230Z,18.96
2023-05-01T10:35:48.900Z,18.63
2023-05-01T10:38:23.706Z,18.64
2023-05-01T10:40:50.752Z,18.63
2023-05-01T10:43:19.675Z,18.52
2023-05-01T10:45:47.863Z,18.23
2023-05-01T10:48:47.260Z,18.81
2023-05-01T10:51:17.000Z,18.57
2023-05-01T10:53:45.054Z,18.70
2023-05-01T10:56:44.132Z,18.76
2023-05-01T10:59:10.858Z,18.76
2023-05-01T11:01:38.527Z,18.40
2023-05-01T11:04:06.517Z,19.13
2023-05-01T11:06:35.729Z,18.97
2023-05-01T11:09:22.697Z,18.79
2023-05-01T11:11:49.401Z,19.22
2023-05-01T11:14:15.925Z,19.46
2023-05-01T11:16:44.449Z,19.08
2023-05-01T11:19:32.539Z,18.99
2023-05-01T11:22:00.757Z,19.71
2023-05-01T11:24:33.231Z,20.26
2023-05-01T11:26:59.839Z,19.96
2023-05-01T11:29:31.143Z,20.17
2023-05-01T11:31:57.929Z,20.92
2023-05-01T11:34:25.265Z,21.09
2023-05-01T11:36:53.119Z,21.26
2023-05-01T11:39:21.018Z,20.89
2023-05-01T11:41:47.652Z,20.56
2023-05-01T11:44:16.491Z,21.09
2023-05-01T11:46:43.170Z,20.91
2023-05-01T11:49:11.954Z,20.41
2023-05-01T11:51:38.835Z,20.28
2023-05-01T11:54:06.878Z,20.48
2023-05-01T11:56:35.871Z,20.67
2023-05-01T11:59:10.802Z,20.88
2023-05-01T12:01:39.623Z,20.96
2023-05-01T12:04:07.187Z,21.29
2023-05-01T12:06:37.402Z,21.20
2023-05-01T12:09:04.293Z,21.98
2023-05-01T12:11:30.931Z,21.89
2023-05-01T12:13:59.013Z,22.12
2023-05-01T12:16:25.951Z,22.47
2023-05-01T12:18:52.606Z,23.06
2023-05-01T12:21:19.153Z,22.86
2023-05-01T12:23:45.765Z,22.59
2023-05-01T12:26:19.091Z,22.20
2023-05-01T12:29:00.578Z,22.30
2023-05-01T12:31:28.867Z,22.91
2023-05-01T12:33:56.591Z,21.61
2023-05-01T12:36:23.624Z,22.54
2023-05-01T12:38:55.752Z,22.83
2023-05-01T12:41:32.761Z,22.61
2023-05-01T12:44:01.020Z,22.74
2023-05-01T12:46:27.647Z,21.51
2023-05-01T12:48:54.776Z,21.20
2023-05-01T12:51:21.908Z,22.00
2023-05-01T12:53:48.795Z,21.69
2023-05-01T12:56:21.881Z,21.28
2023-05-01T12:58:48.680Z,20.80
2023-05-01T13:01:24.326Z,22.45
2023-05-01T13:03:51.057Z,22.42
2023-05-01T13:06:17.994Z,22.12
2023-05-01T13:08:44.641Z,21.64
2023-05-01T13:11:13.355Z,22.01
2023-05-01T13:13:40.658Z,21.60
2023-05-01T13:16:08.859Z,21.81
2023-05-01T13:18:45.297Z,22.62
2023-05-01T13:21:13.643Z,22.89
2023-05-01T13:23:40.677Z,22.97
2023-05-01T13:26:08.385Z,22.69
2023-05-01T13:28:35.918Z,22.55
2023-05-01T13:31:02.545Z,22.30
2023-05-01T13:33:31.241Z,21.74
2023-05-01T13:36:01.758Z,21.60
2023-05-01T13:38:39.409Z,22.17
2023-05-01T13:41:06.121Z,22.33
2023-05-01T13:43:34.149Z,22.53
2023-05-01T13:46:00.805Z,22.53
2023-05-01T13:48:27.410Z,22.52
2023-05-01T13:50:54.122Z,22.14
2023-05-01T13:53:22.612Z,22.20
2023-05-01T13:55:49.156Z,22.62
2023-05-01T13:58:15.741Z,22.68
2023-05-01T14:00:44.590Z,23.48
2023-05-01T14:03:11.360Z,23.40
2023-05-01T14:05:40.028Z,22.99
2023-05-01T14:08:08.937Z,22.69
2023-05-01T14:10:36.813Z,22.66
2023-05-01T14:13:04.454Z,23.14
2023-05-01T14:15:33.390Z,23.16
2023-05-01T14:18:04.891Z,22.81
2023-05-01T14:20:31.513Z,22.30
2023-05-01T14:22:59.554Z,21.77
2023-05-01T14:25:28.547Z,21.40
2023-05-01T14:27:58.272Z,21.48
2023-05-01T14:30:28.253Z,21.31
2023-05-01T14:32:55.594Z,21.04
2023-05-01T14:35:24.077Z,20.73
2023-05-01T14:37:51.020Z,20.51
2023-05-01T14:40:25.935Z,20.42
2023-05-01T14:42:54.457Z,20.35
2023-05-01T14:45:22.719Z,20.44
2023-05-01T14:47:50.009Z,20.61
2023-05-01T14:50:20.564Z,20.15
2023-05-01T14:52:47.903Z,20.27
2023-05-01T14:55:17.508Z,20.33
2023-05-01T14:57:45.099Z,20.08
2023-05-01T15:00:12.809Z,20.01
2023-05-01T15:02:40.789Z,19.98
2023-05-01T15:05:08.130Z,19.99
2023-05-01T15:07:34.731Z,19.70
2023-05-01T15:10:01.630Z,19.56
2023-05-01T15:12:28.280Z,19.50
2023-05-01T15:14:55.064Z,19.34
2023-05-01T15:17:21.728Z,19.27
2023-05-01T15:19:49.698Z,18.91
2023-05-01T15:22:17.353Z,18.48
2023-05-01T15:24:43.916Z,18.43
2023-05-01T15:27:10.651Z,18.53
2023-05-01T15:29:37.182Z,18.61
2023-05-01T15:32:12.523Z,18.68
2023-05-01T15:34:39.762Z,18.68
2023-05-01T15:37:07.626Z,18.60
2023-05-01T15:39:34.336Z,18.55
2023-05-01T15:42:00.897Z,18.21
2023-05-01T15:44:27.645Z,18.24
2023-05-01T15:46:54.407Z,18.12
2023-05-01T15:49:21.088Z,17.86
2023-05-01T15:51:47.770Z,17.86
2023-05-01T15:54:15.716Z,17.95
2023-05-01T15:56:42.462Z,17.93
2023-05-01T15:59:09.078Z,17.84
2023-05-01T16:01:35.869Z,17.97
2023-05-01T16:04:03.124Z,17.71
2023-05-01T16:06:30.119Z,17.58
2023-05-01T16:08:58.209Z,17.57
2023-05-01T16:11:26.684Z,17.40
2023-05-01T16:13:53.615Z,17.19
2023-05-01T16:16:23.069Z,17.15
2023-05-01T16:18:53.394Z,17.15
2023-05-01T16:21:20.185Z,17.13
2023-05-01T16:23:46.817Z,17.13
2023-05-01T16:26:13.593Z,17.04
2023-05-01T16:28:41.968Z,17.10
2023-05-01T16:31:23.567Z,17.04
2023-05-01T16:33:53.718Z,17.04
2023-05-01T16:36:20.643Z,17.03
2023-05-01T16:38:47.760Z,17.00
2023-05-01T16:41:17.737Z,17.02
2023-05-01T16:43:45.878Z,16.99
2023-05-01T16:46:15.011Z,16.97
2023-05-01T16:48:41.982Z,16.95
2023-05-01T16:51:09.372Z,16.88
2023-05-01T16:53:36.159Z,16.80
2023-05-01T16:56:03.088Z,16.82
2023-05-01T16:58:29.687Z,16.80
2023-05-01T17:00:57.849Z,16.78
2023-05-01T17:03:24.558Z,16.64
2023-05-01T17:05:51.165Z,16.61
2023-05-01T17:08:17.855Z,16.59
2023-05-01T17:10:44.413Z,16.55
2023-05-01T17:13:11.124Z,16.47
2023-05-01T17:15:37.744Z,16.36
2023-05-01T17:18:05.785Z,16.35
2023-05-01T17:20:32.523Z,16.31
2023-05-01T17:22:59.165Z,16.35
2023-05-01T17:25:25.757Z,16.32
2023-05-01T17:27:52.447Z,16.41
2023-05-01T17:30:19.091Z,16.31
2023-05-01T17:32:46.066Z,16.26
2023-05-01T17:35:14.078Z,16.29
2023-05-01T17:37:40.695Z,16.29
2023-05-01T17:40:08.390Z,16.26
2023-05-01T17:42:36.346Z,16.17
2023-05-01T17:45:03.243Z,16.18
2023-05-01T17:47:30.067Z,16.14
2023-05-01T17:49:56.731Z,16.09
2023-05-01T17:52:24.622Z,15.95
2023-05-01T17:54:51.164Z,15.86
2023-05-01T17:57:17.807Z,15.79
2023-05-01T17:59:44.337Z,15.69
2023-05-01T18:02:10.982Z,15.60
2023-05-01T18:04:38.115Z,15.55
2023-05-01T18:07:04.780Z,15.46
2023-05-01T18:09:32.723Z,15.37
2023-05-01T18:11:59.491Z,15.27
2023-05-01T18:14:26.112Z,15.21
2023-05-01T18:16:52.881Z,15.14
2023-05-01T18:19:19.566Z,15.09
2023-05-01T18:21:46.322Z,14.97
2023-05-01T18:24:12.909Z,14.94
2023-05-01T18:26:40.840Z,14.91
2023-05-01T18:29:07.394Z,14.84
2023-05-01T18:31:34.325Z,14.82
2023-05-01T18:34:00.905Z,14.74
2023-05-01T18:36:27.455Z,14.64
2023-05-01T18:38:53.972Z,14.55
2023-05-01T18:41:20.501Z,14.43
2023-05-01T18:43:48.764Z,14.25
2023-05-01T18:46:15.915Z,14.16
2023-05-01T18:48:44.371Z,14.05
2023-05-01T18:51:10.942Z,13.94
2023-05-01T18:53:37.698Z,13.84
2023-05-01T18:56:04.978Z,13.72
2023-05-01T18:58:31.529Z,13.67
2023-05-01T19:00:59.453Z,13.63
2023-05-01T19:03:25.984Z,13.58
2023-05-01T19:05:52.751Z,13.46
2023-05-01T19:08:19.426Z,13.38
2023-05-01T19:10:45.991Z,13.30
2023-05-01T19:13:12.548Z,13.21
2023-05-01T19:15:39.168Z,13.08
2023-05-01T19:18:07.324Z,12.99
2023-05-01T19:20:33.941Z,12.94
2023-05-01T19:23:00.658Z,12.85
2023-05-01T19:25:45.887Z,12.78
2023-05-01T19:28:12.493Z,12.64
2023-05-01T19:30:39.248Z,12.60
2023-05-01T19:33:07.182Z,12.52
2023-05-01T19:35:35.544Z,12.41
2023-05-01T19:38:02.128Z,12.33
2023-05-01T19:40:28.758Z,12.25
2023-05-01T19:42:55.474Z,12.11
2023-05-01T19:45:22.092Z,12.08
2023-05-01T19:47:48.787Z,12.01
2023-05-01T19:50:18.188Z,12.05
2023-05-01T19:52:44.807Z,12.04
2023-05-01T19:55:11.419Z,12.06
2023-05-01T19:57:38.109Z,12.04
2023-05-01T20:00:06.190Z,12.00
2023-05-01T20:02:33.077Z,11.93
2023-05-01T20:04:59.848Z,11.86
2023-05-01T20:07:27.816Z,11.79
2023-05-01T20:09:54.362Z,11.80
2023-05-01T20:12:20.914Z,11.73
2023-05-01T20:14:47.433Z,11.77
2023-05-01T20:17:14.155Z,11.80
2023-05-01T20:19:40.741Z,11.74
2023-05-01T20:22:07.289Z,11.72
2023-05-01T20:24:35.286Z,11.70
2023-05-01T20:27:03.207Z,11.68
2023-05-01T20:29:30.096Z,11.67
2023-05-01T20:31:58.286Z,11.63
2023-05-01T20:34:25.128Z,11.56
2023-05-01T20:36:51.700Z,11.64
2023-05-01T20:39:18.518Z,11.65
2023-05-01T20:41:46.620Z,11.60
2023-05-01T20:44:13.154Z,11.56
2023-05-01T20:46:39.824Z,11.57
2023-05-01T20:49:06.481Z,11.53
2023-05-01T20:51:32.990Z,11.45
2023-05-01T20:53:59.583Z,11.41
2023-05-01T20:56:26.392Z,11.33
2023-05-01T20:58:54.308Z,11.31
2023-05-01T21:01:20.913Z,11.35
2023-05-01T21:03:47.591Z,11.40
2023-05-01T21:06:14.419Z,11.36
2023-05-01T21:08:41.142Z,11.36
2023-05-01T21:11:07.735Z,11.31
2023-05-01T21:13:34.339Z,11.23
2023-05-01T21:16:02.620Z,11.15
2023-05-01T21:18:32.868Z,11.18
2023-05-01T21:21:01.962Z,11.13
2023-05-01T21:23:29.609Z,11.13
2023-05-01T21:25:56.454Z,11.12
2023-05-01T21:28:23.052Z,11.06
2023-05-01T21:30:49.855Z,11.05
2023-05-01T21:33:17.879Z,11.07
2023-05-01T21:35:46.298Z,11.03
2023-05-01T21:38:12.839Z,10.98
2023-05-01T21:40:41.925Z,10.96
2023-05-01T21:43:09.293Z,10.89
2023-05-01T21:45:35.892Z,10.90
2023-05-01T21:48:02.723Z,10.86
2023-05-01T21:50:35.044Z,10.82
2023-05-01T21:53:01.859Z,10.78
2023-05-01T21:55:28.490Z,10.75
2023-05-01T21:57:55.328Z,10.72
2023-05-01T22:00:21.926Z,10.72
2023-05-01T22:02:50.335Z,10.77
2023-05-01T22:05:19.909Z,10.82
2023-05-01T22:07:48.345Z,10.79
2023-05-01T22:10:16.896Z,10.78
2023-05-01T22:12:44.349Z,10.75
2023-05-01T22:15:12.187Z,10.73
2023-05-01T22:17:39.554Z,10.71
2023-05-01T22:20:07.486Z,10.69
2023-05-01T22:22:34.518Z,10.63
2023-05-01T22:25:02.564Z,10.56
2023-05-01T22:27:29.798Z,10.59
2023-05-01T22:29:56.535Z,10.71
2023-05-01T22:32:23.194Z,10.77
2023-05-01T22:34:50.001Z,10.78
2023-05-01T22:37:16.597Z,10.78
2023-05-01T22:39:43.235Z,10.74
2023-05-01T22:42:11.111Z,10.71
2023-05-01T22:44:37.831Z,10.66
2023-05-01T22:47:04.371Z,10.62
2023-05-01T22:49:31.111Z,10.58
2023-05-01T22:51:57.832Z,10.54
2023-05-01T22:54:24.685Z,10.49
2023-05-01T22:56:51.235Z,10.44
2023-05-01T22:59:19.342Z,10.39
2023-05-01T23:01:46.204Z,10.35
2023-05-01T23:04:13.131Z,10.31
2023-05-01T23:06:39.979Z,10.27
2023-05-01T23:09:06.685Z,10.27
2023-05-01T23:11:34.246Z,10.23
2023-05-01T23:14:01.365Z,10.17
2023-05-01T23:16:36.273Z,10.11
2023-05-01T23:19:03.705Z,10.01
2023-05-01T23:21:30.390Z,9.88
2023-05-01T23:23:56.941Z,9.77
2023-05-01T23:26:25.117Z,9.70
2023-05-01T23:28:52.683Z,9.60
2023-05-01T23:31:23.622Z,9.54
2023-05-01T23:33:52.018Z,9.47
2023-05-01T23:36:18.660Z,9.43
2023-05-01T23:38:46.028Z,9.36
2023-05-01T23:41:12.753Z,9.32
2023-05-01T23:43:39.593Z,9.29
2023-05-01T23:46:06.488Z,9.25
2023-05-01T23:48:33.655Z,9.20
2023-05-01T23:51:02.537Z,9.13
2023-05-01T23:53:29.271Z,9.09
2023-05-01T23:55:56.023Z,9.07
2023-05-01T23:58:23.588Z,9.03
